sensor_id;sensor_type;location;lat;lon;timestamp;P1;durP1;ratioP1;P2;durP2;ratioP2
22894;SDS011;11614;52.494;6.976;2023-06-10T00:01:41;6.18;;;3.63;;
22894;SDS011;11614;52.494;6.976;2023-06-10T00:04:08;8.07;;;3.95;;
22894;SDS011;11614;52.494;6.976;2023-06-10T00:06:34;4.55;;;3.17;;
22894;SDS011;11614;52.494;6.976;2023-06-10T00:09:04;4.97;;;2.67;;
22894;SDS011;11614;52.494;6.976;2023-06-10T00:11:32;7.03;;;3.72;;
22894;SDS011;11614;52.494;6.976;2023-06-10T00:13:58;4.38;;;2.88;;
22894;SDS011;11614;52.494;6.976;2023-06-10T00:16:25;7.47;;;3.70;;
22894;SDS011;11614;52.494;6.976;2023-06-10T00:18:51;6.87;;;3.50;;
22894;SDS011;11614;52.494;6.976;2023-06-10T00:21:17;5.05;;;3.55;;
22894;SDS011;11614;52.494;6.976;2023-06-10T00:23:44;5.03;;;3.10;;
22894;SDS011;11614;52.494;6.976;2023-06-10T00:26:10;7.37;;;3.97;;
22894;SDS011;11614;52.494;6.976;2023-06-10T00:28:36;6.30;;;3.37;;
22894;SDS011;11614;52.494;6.976;2023-06-10T00:31:01;6.30;;;2.37;;
22894;SDS011;11614;52.494;6.976;2023-06-10T00:33:29;6.60;;;3.83;;
22894;SDS011;11614;52.494;6.976;2023-06-10T00:35:55;5.20;;;3.30;;
22894;SDS011;11614;52.494;6.976;2023-06-10T00:38:21;5.93;;;3.37;;
22894;SDS011;11614;52.494;6.976;2023-06-10T00:40:47;4.90;;;3.53;;
22894;SDS011;11614;52.494;6.976;2023-06-10T00:43:12;5.50;;;3.37;;
22894;SDS011;11614;52.494;6.976;2023-06-10T00:45:38;3.73;;;3.00;;
22894;SDS011;11614;52.494;6.976;2023-06-10T00:48:04;6.83;;;3.90;;
22894;SDS011;11614;52.494;6.976;2023-06-10T00:50:30;6.10;;;3.77;;
22894;SDS011;11614;52.494;6.976;2023-06-10T00:52:58;6.10;;;3.83;;
22894;SDS011;11614;52.494;6.976;2023-06-10T00:55:24;5.17;;;3.43;;
22894;SDS011;11614;52.494;6.976;2023-06-10T00:57:52;9.63;;;3.90;;
22894;SDS011;11614;52.494;6.976;2023-06-10T01:00:18;5.20;;;3.73;;
22894;SDS011;11614;52.494;6.976;2023-06-10T01:02:45;6.37;;;3.57;;
22894;SDS011;11614;52.494;6.976;2023-06-10T01:05:11;5.43;;;3.77;;
22894;SDS011;11614;52.494;6.976;2023-06-10T01:07:43;6.67;;;4.47;;
22894;SDS011;11614;52.494;6.976;2023-06-10T01:10:25;6.67;;;4.10;;
22894;SDS011;11614;52.494;6.976;2023-06-10T01:13:20;7.00;;;4.87;;
22894;SDS011;11614;52.494;6.976;2023-06-10T01:15:49;6.57;;;3.90;;
22894;SDS011;11614;52.494;6.976;2023-06-10T01:18:16;7.50;;;3.80;;
22894;SDS011;11614;52.494;6.976;2023-06-10T01:20:42;5.73;;;3.57;;
22894;SDS011;11614;52.494;6.976;2023-06-10T01:23:09;5.20;;;3.47;;
22894;SDS011;11614;52.494;6.976;2023-06-10T01:25:39;5.23;;;3.50;;
22894;SDS011;11614;52.494;6.976;2023-06-10T01:28:10;5.10;;;4.00;;
22894;SDS011;11614;52.494;6.976;2023-06-10T01:30:56;6.50;;;3.57;;
22894;SDS011;11614;52.494;6.976;2023-06-10T01:33:27;7.77;;;4.27;;
22894;SDS011;11614;52.494;6.976;2023-06-10T01:35:54;6.53;;;3.50;;
22894;SDS011;11614;52.494;6.976;2023-06-10T01:38:21;9.13;;;3.60;;
22894;SDS011;11614;52.494;6.976;2023-06-10T01:40:48;6.87;;;3.97;;
22894;SDS011;11614;52.494;6.976;2023-06-10T01:43:14;5.93;;;3.97;;
22894;SDS011;11614;52.494;6.976;2023-06-10T01:45:40;6.70;;;3.97;;
22894;SDS011;11614;52.494;6.976;2023-06-10T01:48:06;6.53;;;3.47;;
22894;SDS011;11614;52.494;6.976;2023-06-10T01:50:32;5.13;;;3.83;;
22894;SDS011;11614;52.494;6.976;2023-06-10T01:52:59;7.40;;;4.40;;
22894;SDS011;11614;52.494;6.976;2023-06-10T01:55:25;6.50;;;3.47;;
22894;SDS011;11614;52.494;6.976;2023-06-10T01:57:51;8.53;;;4.30;;
22894;SDS011;11614;52.494;6.976;2023-06-10T02:00:17;6.53;;;4.90;;
22894;SDS011;11614;52.494;6.976;2023-06-10T02:02:43;9.30;;;4.63;;
22894;SDS011;11614;52.494;6.976;2023-06-10T02:05:09;5.83;;;4.23;;
22894;SDS011;11614;52.494;6.976;2023-06-10T02:07:35;7.60;;;4.20;;
22894;SDS011;11614;52.494;6.976;2023-06-10T02:10:01;6.63;;;3.67;;
22894;SDS011;11614;52.494;6.976;2023-06-10T02:12:27;5.97;;;4.37;;
22894;SDS011;11614;52.494;6.976;2023-06-10T02:14:53;5.23;;;4.10;;
22894;SDS011;11614;52.494;6.976;2023-06-10T02:17:19;8.27;;;4.43;;
22894;SDS011;11614;52.494;6.976;2023-06-10T02:19:45;8.73;;;4.33;;
22894;SDS011;11614;52.494;6.976;2023-06-10T02:22:21;6.03;;;4.03;;
22894;SDS011;11614;52.494;6.976;2023-06-10T02:24:47;6.10;;;4.50;;
22894;SDS011;11614;52.494;6.976;2023-06-10T02:27:13;9.87;;;4.87;;
22894;SDS011;11614;52.494;6.976;2023-06-10T02:29:39;6.63;;;4.67;;
22894;SDS011;11614;52.494;6.976;2023-06-10T02:32:06;8.47;;;4.40;;
22894;SDS011;11614;52.494;6.976;2023-06-10T02:34:32;6.07;;;3.63;;
22894;SDS011;11614;52.494;6.976;2023-06-10T02:36:58;11.07;;;4.87;;
22894;SDS011;11614;52.494;6.976;2023-06-10T02:39:24;7.13;;;4.53;;
22894;SDS011;11614;52.494;6.976;2023-06-10T02:41:50;7.20;;;3.87;;
22894;SDS011;11614;52.494;6.976;2023-06-10T02:44:17;8.30;;;4.70;;
22894;SDS011;11614;52.494;6.976;2023-06-10T02:46:44;10.80;;;5.40;;
22894;SDS011;11614;52.494;6.976;2023-06-10T02:49:11;7.60;;;4.50;;
22894;SDS011;11614;52.494;6.976;2023-06-10T02:51:37;6.43;;;4.53;;
22894;SDS011;11614;52.494;6.976;2023-06-10T02:54:03;6.27;;;4.37;;
22894;SDS011;11614;52.494;6.976;2023-06-10T02:56:29;10.50;;;5.23;;
22894;SDS011;11614;52.494;6.976;2023-06-10T02:58:55;8.73;;;5.33;;
22894;SDS011;11614;52.494;6.976;2023-06-10T03:01:21;7.20;;;4.03;;
22894;SDS011;11614;52.494;6.976;2023-06-10T03:03:47;8.97;;;5.50;;
22894;SDS011;11614;52.494;6.976;2023-06-10T03:06:13;8.27;;;4.63;;
22894;SDS011;11614;52.494;6.976;2023-06-10T03:08:39;8.77;;;4.70;;
22894;SDS011;11614;52.494;6.976;2023-06-10T03:11:05;8.20;;;5.00;;
22894;SDS011;11614;52.494;6.976;2023-06-10T03:13:31;9.13;;;5.23;;
22894;SDS011;11614;52.494;6.976;2023-06-10T03:15:58;7.30;;;4.73;;
22894;SDS011;11614;52.494;6.976;2023-06-10T03:18:25;7.73;;;4.63;;
22894;SDS011;11614;52.494;6.976;2023-06-10T03:20:52;8.43;;;5.27;;
22894;SDS011;11614;52.494;6.976;2023-06-10T03:23:18;10.30;;;5.23;;
22894;SDS011;11614;52.494;6.976;2023-06-10T03:25:44;8.47;;;4.77;;
22894;SDS011;11614;52.494;6.976;2023-06-10T03:28:10;8.07;;;4.80;;
22894;SDS011;11614;52.494;6.976;2023-06-10T03:30:36;7.63;;;4.83;;
22894;SDS011;11614;52.494;6.976;2023-06-10T03:33:02;8.10;;;4.80;;
22894;SDS011;11614;52.494;6.976;2023-06-10T03:35:29;6.73;;;4.73;;
22894;SDS011;11614;52.494;6.976;2023-06-10T03:37:55;10.93;;;5.37;;
22894;SDS011;11614;52.494;6.976;2023-06-10T03:40:21;7.43;;;4.60;;
22894;SDS011;11614;52.494;6.976;2023-06-10T03:42:47;9.33;;;5.17;;
22894;SDS011;11614;52.494;6.976;2023-06-10T03:45:13;8.00;;;4.43;;
22894;SDS011;11614;52.494;6.976;2023-06-10T03:47:39;8.50;;;4.77;;
22894;SDS011;11614;52.494;6.976;2023-06-10T03:50:06;6.67;;;4.70;;
22894;SDS011;11614;52.494;6.976;2023-06-10T03:52:33;6.53;;;4.63;;
22894;SDS011;11614;52.494;6.976;2023-06-10T03:54:59;7.53;;;4.77;;
22894;SDS011;11614;52.494;6.976;2023-06-10T03:57:25;7.70;;;4.43;;
22894;SDS011;11614;52.494;6.976;2023-06-10T03:59:51;8.57;;;5.17;;
22894;SDS011;11614;52.494;6.976;2023-06-10T04:02:17;10.50;;;4.80;;
22894;SDS011;11614;52.494;6.976;2023-06-10T04:04:43;8.87;;;5.33;;
22894;SDS011;11614;52.494;6.976;2023-06-10T04:07:10;7.53;;;4.80;;
22894;SDS011;11614;52.494;6.976;2023-06-10T04:09:37;7.50;;;3.83;;
22894;SDS011;11614;52.494;6.976;2023-06-10T04:12:03;8.43;;;5.03;;
22894;SDS011;11614;52.494;6.976;2023-06-10T04:14:31;9.13;;;4.80;;
22894;SDS011;11614;52.494;6.976;2023-06-10T04:16:57;9.67;;;5.00;;
22894;SDS011;11614;52.494;6.976;2023-06-10T04:19:23;8.10;;;4.40;;
22894;SDS011;11614;52.494;6.976;2023-06-10T04:21:49;8.37;;;4.63;;
22894;SDS011;11614;52.494;6.976;2023-06-10T04:24:15;9.43;;;5.57;;
22894;SDS011;11614;52.494;6.976;2023-06-10T04:26:41;9.20;;;4.90;;
22894;SDS011;11614;52.494;6.976;2023-06-10T04:29:07;6.77;;;4.20;;
22894;SDS011;11614;52.494;6.976;2023-06-10T04:31:33;11.43;;;5.37;;
22894;SDS011;11614;52.494;6.976;2023-06-10T04:33:59;9.00;;;4.70;;
22894;SDS011;11614;52.494;6.976;2023-06-10T04:36:25;7.63;;;4.47;;
22894;SDS011;11614;52.494;6.976;2023-06-10T04:38:51;6.93;;;4.97;;
22894;SDS011;11614;52.494;6.976;2023-06-10T04:41:17;7.70;;;4.03;;
22894;SDS011;11614;52.494;6.976;2023-06-10T04:43:44;8.03;;;5.10;;
22894;SDS011;11614;52.494;6.976;2023-06-10T04:46:10;6.40;;;4.07;;
22894;SDS011;11614;52.494;6.976;2023-06-10T04:48:35;6.07;;;4.57;;
22894;SDS011;11614;52.494;6.976;2023-06-10T04:51:02;8.15;;;5.15;;
22894;SDS011;11614;52.494;6.976;2023-06-10T04:53:27;6.15;;;4.40;;
22894;SDS011;11614;52.494;6.976;2023-06-10T04:55:53;6.63;;;4.55;;
22894;SDS011;11614;52.494;6.976;2023-06-10T04:58:19;7.38;;;4.57;;
22894;SDS011;11614;52.494;6.976;2023-06-10T05:00:45;7.82;;;5.32;;
22894;SDS011;11614;52.494;6.976;2023-06-10T05:03:11;9.07;;;4.95;;
22894;SDS011;11614;52.494;6.976;2023-06-10T05:05:37;10.50;;;4.70;;
22894;SDS011;11614;52.494;6.976;2023-06-10T05:08:03;8.10;;;5.25;;
22894;SDS011;11614;52.494;6.976;2023-06-10T05:10:29;5.72;;;4.30;;
22894;SDS011;11614;52.494;6.976;2023-06-10T05:12:56;9.98;;;6.63;;
22894;SDS011;11614;52.494;6.976;2023-06-10T05:15:23;6.80;;;5.60;;
22894;SDS011;11614;52.494;6.976;2023-06-10T05:17:49;7.47;;;4.75;;
22894;SDS011;11614;52.494;6.976;2023-06-10T05:20:15;9.10;;;6.05;;
22894;SDS011;11614;52.494;6.976;2023-06-10T05:22:41;7.28;;;4.80;;
22894;SDS011;11614;52.494;6.976;2023-06-10T05:25:07;7.45;;;6.45;;
22894;SDS011;11614;52.494;6.976;2023-06-10T05:27:33;7.18;;;6.38;;
22894;SDS011;11614;52.494;6.976;2023-06-10T05:29:59;6.55;;;5.70;;
22894;SDS011;11614;52.494;6.976;2023-06-10T05:32:26;7.35;;;5.72;;
22894;SDS011;11614;52.494;6.976;2023-06-10T05:34:51;7.47;;;6.57;;
22894;SDS011;11614;52.494;6.976;2023-06-10T05:37:17;6.80;;;5.82;;
22894;SDS011;11614;52.494;6.976;2023-06-10T05:39:43;7.20;;;6.43;;
22894;SDS011;11614;52.494;6.976;2023-06-10T05:42:09;7.72;;;6.07;;
22894;SDS011;11614;52.494;6.976;2023-06-10T05:44:35;6.95;;;5.78;;
22894;SDS011;11614;52.494;6.976;2023-06-10T05:47:02;3.72;;;3.42;;
22894;SDS011;11614;52.494;6.976;2023-06-10T05:49:28;6.93;;;5.60;;
22894;SDS011;11614;52.494;6.976;2023-06-10T05:51:54;5.70;;;4.50;;
22894;SDS011;11614;52.494;6.976;2023-06-10T05:54:22;7.60;;;5.78;;
22894;SDS011;11614;52.494;6.976;2023-06-10T05:56:48;9.05;;;6.05;;
22894;SDS011;11614;52.494;6.976;2023-06-10T05:59:14;8.90;;;6.25;;
22894;SDS011;11614;52.494;6.976;2023-06-10T06:01:40;7.68;;;6.03;;
22894;SDS011;11614;52.494;6.976;2023-06-10T06:04:06;6.45;;;5.63;;
22894;SDS011;11614;52.494;6.976;2023-06-10T06:06:32;7.45;;;5.90;;
22894;SDS011;11614;52.494;6.976;2023-06-10T06:08:58;6.40;;;5.50;;
22894;SDS011;11614;52.494;6.976;2023-06-10T06:11:24;8.18;;;6.40;;
22894;SDS011;11614;52.494;6.976;2023-06-10T06:13:51;6.45;;;5.43;;
22894;SDS011;11614;52.494;6.976;2023-06-10T06:16:17;9.40;;;5.90;;
22894;SDS011;11614;52.494;6.976;2023-06-10T06:18:43;7.80;;;6.38;;
22894;SDS011;11614;52.494;6.976;2023-06-10T06:21:09;10.05;;;5.82;;
22894;SDS011;11614;52.494;6.976;2023-06-10T06:23:35;6.03;;;5.40;;
22894;SDS011;11614;52.494;6.976;2023-06-10T06:26:01;9.73;;;6.55;;
22894;SDS011;11614;52.494;6.976;2023-06-10T06:28:27;5.63;;;5.10;;
22894;SDS011;11614;52.494;6.976;2023-06-10T06:30:55;5.82;;;5.15;;
22894;SDS011;11614;52.494;6.976;2023-06-10T06:33:21;8.20;;;6.05;;
22894;SDS011;11614;52.494;6.976;2023-06-10T06:35:47;6.15;;;5.25;;
22894;SDS011;11614;52.494;6.976;2023-06-10T06:38:13;7.70;;;5.03;;
22894;SDS011;11614;52.494;6.976;2023-06-10T06:40:39;8.25;;;6.70;;
22894;SDS011;11614;52.494;6.976;2023-06-10T06:43:04;8.43;;;6.95;;
22894;SDS011;11614;52.494;6.976;2023-06-10T06:45:30;8.55;;;7.03;;
22894;SDS011;11614;52.494;6.976;2023-06-10T06:47:58;8.45;;;5.95;;
22894;SDS011;11614;52.494;6.976;2023-06-10T06:50:24;9.13;;;5.88;;
22894;SDS011;11614;52.494;6.976;2023-06-10T06:52:50;6.03;;;5.32;;
22894;SDS011;11614;52.494;6.976;2023-06-10T06:55:16;6.05;;;5.45;;
22894;SDS011;11614;52.494;6.976;2023-06-10T06:57:42;6.57;;;5.60;;
22894;SDS011;11614;52.494;6.976;2023-06-10T07:00:09;6.82;;;5.38;;
22894;SDS011;11614;52.494;6.976;2023-06-10T07:02:35;8.43;;;6.15;;
22894;SDS011;11614;52.494;6.976;2023-06-10T07:05:01;6.50;;;5.30;;
22894;SDS011;11614;52.494;6.976;2023-06-10T07:07:28;7.15;;;5.20;;
22894;SDS011;11614;52.494;6.976;2023-06-10T07:09:54;8.35;;;6.10;;
22894;SDS011;11614;52.494;6.976;2023-06-10T07:12:20;6.85;;;5.30;;
22894;SDS011;11614;52.494;6.976;2023-06-10T07:14:48;6.28;;;4.68;;
22894;SDS011;11614;52.494;6.976;2023-06-10T07:17:14;6.05;;;5.45;;
22894;SDS011;11614;52.494;6.976;2023-06-10T07:19:40;6.90;;;5.70;;
22894;SDS011;11614;52.494;6.976;2023-06-10T07:22:06;9.07;;;5.60;;
22894;SDS011;11614;52.494;6.976;2023-06-10T07:24:33;9.95;;;5.57;;
22894;SDS011;11614;52.494;6.976;2023-06-10T07:26:59;8.57;;;6.18;;
22894;SDS011;11614;52.494;6.976;2023-06-10T07:29:25;8.00;;;6.13;;
22894;SDS011;11614;52.494;6.976;2023-06-10T07:31:51;8.48;;;6.15;;
22894;SDS011;11614;52.494;6.976;2023-06-10T07:34:18;8.10;;;5.85;;
22894;SDS011;11614;52.494;6.976;2023-06-10T07:36:44;6.60;;;5.75;;
22894;SDS011;11614;52.494;6.976;2023-06-10T07:39:10;4.38;;;3.63;;
22894;SDS011;11614;52.494;6.976;2023-06-10T07:41:36;7.32;;;5.53;;
22894;SDS011;11614;52.494;6.976;2023-06-10T07:44:02;8.05;;;5.45;;
22894;SDS011;11614;52.494;6.976;2023-06-10T07:46:28;6.20;;;5.60;;
22894;SDS011;11614;52.494;6.976;2023-06-10T07:48:54;7.32;;;5.03;;
22894;SDS011;11614;52.494;6.976;2023-06-10T07:51:20;6.18;;;5.60;;
22894;SDS011;11614;52.494;6.976;2023-06-10T07:53:46;6.60;;;5.90;;
22894;SDS011;11614;52.494;6.976;2023-06-10T07:56:12;8.35;;;6.22;;
22894;SDS011;11614;52.494;6.976;2023-06-10T07:58:39;6.80;;;6.10;;
22894;SDS011;11614;52.494;6.976;2023-06-10T08:01:05;7.35;;;5.82;;
22894;SDS011;11614;52.494;6.976;2023-06-10T08:03:31;7.10;;;5.10;;
22894;SDS011;11614;52.494;6.976;2023-06-10T08:05:57;5.65;;;4.90;;
22894;SDS011;11614;52.494;6.976;2023-06-10T08:08:23;5.25;;;4.35;;
22894;SDS011;11614;52.494;6.976;2023-06-10T08:10:48;10.55;;;5.80;;
22894;SDS011;11614;52.494;6.976;2023-06-10T08:13:14;8.15;;;4.88;;
22894;SDS011;11614;52.494;6.976;2023-06-10T08:15:40;5.70;;;4.53;;
22894;SDS011;11614;52.494;6.976;2023-06-10T08:18:06;6.03;;;5.15;;
22894;SDS011;11614;52.494;6.976;2023-06-10T08:20:32;4.78;;;4.22;;
22894;SDS011;11614;52.494;6.976;2023-06-10T08:22:58;6.05;;;5.40;;
22894;SDS011;11614;52.494;6.976;2023-06-10T08:25:24;5.70;;;4.72;;
22894;SDS011;11614;52.494;6.976;2023-06-10T08:27:50;7.43;;;4.78;;
22894;SDS011;11614;52.494;6.976;2023-06-10T08:30:17;6.00;;;5.40;;
22894;SDS011;11614;52.494;6.976;2023-06-10T08:32:43;6.50;;;4.82;;
22894;SDS011;11614;52.494;6.976;2023-06-10T08:35:09;6.15;;;5.53;;
22894;SDS011;11614;52.494;6.976;2023-06-10T08:37:35;6.18;;;5.50;;
22894;SDS011;11614;52.494;6.976;2023-06-10T08:40:01;5.45;;;4.95;;
22894;SDS011;11614;52.494;6.976;2023-06-10T08:42:28;7.15;;;5.22;;
22894;SDS011;11614;52.494;6.976;2023-06-10T08:44:58;5.80;;;5.10;;
22894;SDS011;11614;52.494;6.976;2023-06-10T08:47:26;6.82;;;5.97;;
22894;SDS011;11614;52.494;6.976;2023-06-10T08:49:56;7.07;;;5.35;;
22894;SDS011;11614;52.494;6.976;2023-06-10T08:52:26;5.72;;;5.22;;
22894;SDS011;11614;52.494;6.976;2023-06-10T08:55:02;7.25;;;5.65;;
22894;SDS011;11614;52.494;6.976;2023-06-10T08:57:29;6.32;;;5.53;;
22894;SDS011;11614;52.494;6.976;2023-06-10T08:59:56;6.90;;;5.43;;
22894;SDS011;11614;52.494;6.976;2023-06-10T09:02:23;5.18;;;4.47;;
22894;SDS011;11614;52.494;6.976;2023-06-10T09:04:49;6.32;;;4.65;;
22894;SDS011;11614;52.494;6.976;2023-06-10T09:07:16;5.05;;;4.55;;
22894;SDS011;11614;52.494;6.976;2023-06-10T09:09:43;6.43;;;4.60;;
22894;SDS011;11614;52.494;6.976;2023-06-10T09:12:09;5.35;;;4.85;;
22894;SDS011;11614;52.494;6.976;2023-06-10T09:14:35;6.20;;;4.70;;
22894;SDS011;11614;52.494;6.976;2023-06-10T09:17:01;7.53;;;4.68;;
22894;SDS011;11614;52.494;6.976;2023-06-10T09:19:28;4.97;;;4.47;;
22894;SDS011;11614;52.494;6.976;2023-06-10T09:21:54;7.47;;;5.47;;
22894;SDS011;11614;52.494;6.976;2023-06-10T09:24:22;6.63;;;5.25;;
22894;SDS011;11614;52.494;6.976;2023-06-10T09:26:48;5.78;;;5.07;;
22894;SDS011;11614;52.494;6.976;2023-06-10T09:29:16;4.72;;;4.32;;
22894;SDS011;11614;52.494;6.976;2023-06-10T09:31:42;5.13;;;4.63;;
22894;SDS011;11614;52.494;6.976;2023-06-10T09:34:12;4.82;;;4.43;;
22894;SDS011;11614;52.494;6.976;2023-06-10T09:36:38;5.20;;;4.43;;
22894;SDS011;11614;52.494;6.976;2023-06-10T09:39:04;6.45;;;4.97;;
22894;SDS011;11614;52.494;6.976;2023-06-10T09:41:34;5.50;;;4.97;;
22894;SDS011;11614;52.494;6.976;2023-06-10T09:44:01;6.90;;;5.38;;
22894;SDS011;11614;52.494;6.976;2023-06-10T09:46:31;6.00;;;5.10;;
22894;SDS011;11614;52.494;6.976;2023-06-10T09:48:57;6.32;;;5.57;;
22894;SDS011;11614;52.494;6.976;2023-06-10T09:51:23;5.28;;;4.78;;
22894;SDS011;11614;52.494;6.976;2023-06-10T09:53:52;5.38;;;4.88;;
22894;SDS011;11614;52.494;6.976;2023-06-10T09:56:19;6.03;;;5.43;;
22894;SDS011;11614;52.494;6.976;2023-06-10T09:58:46;5.72;;;5.03;;
22894;SDS011;11614;52.494;6.976;2023-06-10T10:01:12;5.32;;;4.93;;
22894;SDS011;11614;52.494;6.976;2023-06-10T10:03:51;5.13;;;4.65;;
22894;SDS011;11614;52.494;6.976;2023-06-10T10:06:18;5.10;;;4.60;;
22894;SDS011;11614;52.494;6.976;2023-06-10T10:08:45;4.80;;;4.35;;
22894;SDS011;11614;52.494;6.976;2023-06-10T10:11:11;5.63;;;5.22;;
22894;SDS011;11614;52.494;6.976;2023-06-10T10:13:37;5.68;;;5.18;;
22894;SDS011;11614;52.494;6.976;2023-06-10T10:16:09;6.70;;;5.10;;
22894;SDS011;11614;52.494;6.976;2023-06-10T10:18:36;5.45;;;4.95;;
22894;SDS011;11614;52.494;6.976;2023-06-10T10:21:05;6.10;;;5.60;;
22894;SDS011;11614;52.494;6.976;2023-06-10T10:23:34;6.80;;;5.45;;
22894;SDS011;11614;52.494;6.976;2023-06-10T10:26:04;6.78;;;5.57;;
22894;SDS011;11614;52.494;6.976;2023-06-10T10:28:37;5.80;;;5.20;;
22894;SDS011;11614;52.494;6.976;2023-06-10T10:31:07;5.82;;;5.28;;
22894;SDS011;11614;52.494;6.976;2023-06-10T10:33:42;6.63;;;4.82;;
22894;SDS011;11614;52.494;6.976;2023-06-10T10:36:11;4.75;;;4.28;;
22894;SDS011;11614;52.494;6.976;2023-06-10T10:38:37;6.07;;;5.57;;
22894;SDS011;11614;52.494;6.976;2023-06-10T10:41:04;5.35;;;4.85;;
22894;SDS011;11614;52.494;6.976;2023-06-10T10:43:30;5.70;;;5.20;;
22894;SDS011;11614;52.494;6.976;2023-06-10T10:45:59;7.32;;;6.20;;
22894;SDS011;11614;52.494;6.976;2023-06-10T10:48:26;5.93;;;5.38;;
22894;SDS011;11614;52.494;6.976;2023-06-10T10:50:57;5.78;;;5.28;;
22894;SDS011;11614;52.494;6.976;2023-06-10T10:53:24;6.00;;;5.40;;
22894;SDS011;11614;52.494;6.976;2023-06-10T10:58:25;6.95;;;6.28;;
22894;SDS011;11614;52.494;6.976;2023-06-10T11:00:51;6.55;;;5.20;;
22894;SDS011;11614;52.494;6.976;2023-06-10T11:03:17;6.20;;;5.60;;
22894;SDS011;11614;52.494;6.976;2023-06-10T11:05:44;5.72;;;5.22;;
22894;SDS011;11614;52.494;6.976;2023-06-10T11:08:14;6.13;;;5.55;;
22894;SDS011;11614;52.494;6.976;2023-06-10T11:10:40;5.88;;;5.30;;
22894;SDS011;11614;52.494;6.976;2023-06-10T11:13:13;5.53;;;4.95;;
22894;SDS011;11614;52.494;6.976;2023-06-10T11:15:46;6.97;;;5.85;;
22894;SDS011;11614;52.494;6.976;2023-06-10T11:18:13;8.35;;;5.45;;
22894;SDS011;11614;52.494;6.976;2023-06-10T11:23:11;6.45;;;5.93;;
22894;SDS011;11614;52.494;6.976;2023-06-10T11:25:50;5.70;;;5.07;;
22894;SDS011;11614;52.494;6.976;2023-06-10T11:28:19;5.25;;;4.75;;
22894;SDS011;11614;52.494;6.976;2023-06-10T11:30:45;5.28;;;4.82;;
22894;SDS011;11614;52.494;6.976;2023-06-10T11:33:17;5.10;;;4.70;;
22894;SDS011;11614;52.494;6.976;2023-06-10T11:35:43;6.90;;;6.22;;
22894;SDS011;11614;52.494;6.976;2023-06-10T11:38:09;5.78;;;5.22;;
22894;SDS011;11614;52.494;6.976;2023-06-10T11:40:38;7.10;;;5.60;;
22894;SDS011;11614;52.494;6.976;2023-06-10T11:43:05;5.10;;;4.70;;
22894;SDS011;11614;52.494;6.976;2023-06-10T11:45:31;5.90;;;5.40;;
22894;SDS011;11614;52.494;6.976;2023-06-10T11:47:57;5.57;;;5.05;;
22894;SDS011;11614;52.494;6.976;2023-06-10T11:50:30;5.07;;;4.68;;
22894;SDS011;11614;52.494;6.976;2023-06-10T11:52:56;6.53;;;6.03;;
22894;SDS011;11614;52.494;6.976;2023-06-10T11:55:23;5.32;;;4.85;;
22894;SDS011;11614;52.494;6.976;2023-06-10T11:57:49;5.55;;;4.80;;
22894;SDS011;11614;52.494;6.976;2023-06-10T12:00:22;5.50;;;4.88;;
22894;SDS011;11614;52.494;6.976;2023-06-10T12:02:55;6.75;;;4.95;;
22894;SDS011;11614;52.494;6.976;2023-06-10T12:05:22;5.30;;;4.88;;
22894;SDS011;11614;52.494;6.976;2023-06-10T12:07:48;5.93;;;4.47;;
22894;SDS011;11614;52.494;6.976;2023-06-10T12:10:14;6.15;;;5.65;;
22894;SDS011;11614;52.494;6.976;2023-06-10T12:12:41;5.85;;;5.45;;
22894;SDS011;11614;52.494;6.976;2023-06-10T12:15:08;4.82;;;4.40;;
22894;SDS011;11614;52.494;6.976;2023-06-10T12:20:02;5.05;;;4.55;;
22894;SDS011;11614;52.494;6.976;2023-06-10T12:22:42;5.07;;;4.57;;
22894;SDS011;11614;52.494;6.976;2023-06-10T12:25:09;4.32;;;3.92;;
22894;SDS011;11614;52.494;6.976;2023-06-10T12:27:35;5.40;;;4.90;;
22894;SDS011;11614;52.494;6.976;2023-06-10T12:30:02;7.15;;;5.25;;
22894;SDS011;11614;52.494;6.976;2023-06-10T12:35:05;5.07;;;4.72;;
22894;SDS011;11614;52.494;6.976;2023-06-10T12:37:31;5.70;;;5.18;;
22894;SDS011;11614;52.494;6.976;2023-06-10T12:40:01;5.47;;;4.97;;
22894;SDS011;11614;52.494;6.976;2023-06-10T12:42:28;6.72;;;5.45;;
22894;SDS011;11614;52.494;6.976;2023-06-10T12:44:55;4.53;;;4.22;;
22894;SDS011;11614;52.494;6.976;2023-06-10T12:47:32;5.70;;;4.88;;
22894;SDS011;11614;52.494;6.976;2023-06-10T12:50:00;5.85;;;5.20;;
22894;SDS011;11614;52.494;6.976;2023-06-10T12:52:26;5.57;;;4.93;;
22894;SDS011;11614;52.494;6.976;2023-06-10T12:54:53;5.30;;;4.90;;
22894;SDS011;11614;52.494;6.976;2023-06-10T12:57:19;5.75;;;4.95;;
22894;SDS011;11614;52.494;6.976;2023-06-10T12:59:45;5.18;;;4.68;;
22894;SDS011;11614;52.494;6.976;2023-06-10T13:02:17;4.55;;;4.15;;
22894;SDS011;11614;52.494;6.976;2023-06-10T13:04:43;4.80;;;4.50;;
22894;SDS011;11614;52.494;6.976;2023-06-10T13:07:09;5.25;;;4.85;;
22894;SDS011;11614;52.494;6.976;2023-06-10T13:09:35;5.35;;;4.88;;
22894;SDS011;11614;52.494;6.976;2023-06-10T13:12:02;4.88;;;4.40;;
22894;SDS011;11614;52.494;6.976;2023-06-10T13:14:28;4.85;;;4.32;;
22894;SDS011;11614;52.494;6.976;2023-06-10T13:16:54;4.60;;;4.20;;
22894;SDS011;11614;52.494;6.976;2023-06-10T13:19:20;6.18;;;5.68;;
22894;SDS011;11614;52.494;6.976;2023-06-10T13:21:47;5.38;;;4.88;;
22894;SDS011;11614;52.494;6.976;2023-06-10T13:24:13;4.85;;;4.53;;
22894;SDS011;11614;52.494;6.976;2023-06-10T13:26:39;5.05;;;4.55;;
22894;SDS011;11614;52.494;6.976;2023-06-10T13:29:05;5.57;;;5.18;;
22894;SDS011;11614;52.494;6.976;2023-06-10T13:31:33;6.03;;;4.65;;
22894;SDS011;11614;52.494;6.976;2023-06-10T13:33:59;5.65;;;5.25;;
22894;SDS011;11614;52.494;6.976;2023-06-10T13:36:25;5.07;;;4.68;;
22894;SDS011;11614;52.494;6.976;2023-06-10T13:38:51;5.60;;;5.10;;
22894;SDS011;11614;52.494;6.976;2023-06-10T13:41:17;5.25;;;4.75;;
22894;SDS011;11614;52.494;6.976;2023-06-10T13:43:43;5.30;;;4.88;;
22894;SDS011;11614;52.494;6.976;2023-06-10T13:46:08;6.45;;;5.55;;
22894;SDS011;11614;52.494;6.976;2023-06-10T13:48:35;6.55;;;5.35;;
22894;SDS011;11614;52.494;6.976;2023-06-10T13:51:01;6.25;;;5.65;;
22894;SDS011;11614;52.494;6.976;2023-06-10T13:53:27;5.95;;;5.45;;
22894;SDS011;11614;52.494;6.976;2023-06-10T13:55:53;4.72;;;4.43;;
22894;SDS011;11614;52.494;6.976;2023-06-10T13:58:19;5.20;;;4.60;;
22894;SDS011;11614;52.494;6.976;2023-06-10T14:00:45;5.75;;;5.13;;
22894;SDS011;11614;52.494;6.976;2023-06-10T14:03:12;6.10;;;4.25;;
22894;SDS011;11614;52.494;6.976;2023-06-10T14:05:38;5.90;;;5.40;;
22894;SDS011;11614;52.494;6.976;2023-06-10T14:08:04;6.13;;;5.72;;
22894;SDS011;11614;52.494;6.976;2023-06-10T14:10:30;6.03;;;5.40;;
22894;SDS011;11614;52.494;6.976;2023-06-10T14:12:56;6.40;;;5.90;;
22894;SDS011;11614;52.494;6.976;2023-06-10T14:15:22;6.15;;;5.57;;
22894;SDS011;11614;52.494;6.976;2023-06-10T14:17:48;5.00;;;4.60;;
22894;SDS011;11614;52.494;6.976;2023-06-10T14:20:14;5.45;;;4.95;;
22894;SDS011;11614;52.494;6.976;2023-06-10T14:22:40;5.30;;;4.80;;
22894;SDS011;11614;52.494;6.976;2023-06-10T14:25:06;5.43;;;4.88;;
22894;SDS011;11614;52.494;6.976;2023-06-10T14:27:32;7.95;;;6.90;;
22894;SDS011;11614;52.494;6.976;2023-06-10T14:29:58;5.18;;;4.88;;
22894;SDS011;11614;52.494;6.976;2023-06-10T14:32:24;7.03;;;6.00;;
22894;SDS011;11614;52.494;6.976;2023-06-10T14:34:50;6.00;;;5.50;;
22894;SDS011;11614;52.494;6.976;2023-06-10T14:37:16;5.82;;;5.32;;
22894;SDS011;11614;52.494;6.976;2023-06-10T14:39:42;5.95;;;5.35;;
22894;SDS011;11614;52.494;6.976;2023-06-10T14:42:08;6.10;;;5.50;;
22894;SDS011;11614;52.494;6.976;2023-06-10T14:44:35;5.75;;;4.82;;
22894;SDS011;11614;52.494;6.976;2023-06-10T14:47:01;7.60;;;5.53;;
22894;SDS011;11614;52.494;6.976;2023-06-10T14:49:27;5.30;;;4.90;;
22894;SDS011;11614;52.494;6.976;2023-06-10T14:51:53;5.38;;;4.88;;
22894;SDS011;11614;52.494;6.976;2023-06-10T14:54:19;5.63;;;5.13;;
22894;SDS011;11614;52.494;6.976;2023-06-10T14:56:45;5.93;;;5.43;;